Latest Weather Observations for Hopetoun North

IDW60801

Issued at 8:33 pm WST Thursday 19 January 2017 (issued every 30 minutes, with the page automatically refreshed every 10 minutes)

About weather observations | Map of weather stations | Latest weather observations for WA | Other Formats
Station Details ID: 009961 Name: HOPETOUN NORTH Lat: -33.93 Lon: 120.13 Height: 26.0 m
Data from the previous 72 hours. | See also: Recent months at Hopetoun North
Date/Time
WST
Temp
°C
App
Temp
°C
Dew
Point
°C
Rel
Hum
%
Delta-T
°C
Wind Press
QNH
hPa
Press
MSL
hPa
Rain since
9am
mm
Dir  Spd
km/h
Gust
km/h
Spd
kts
Gust
kts
19/08:30pm 17.8 15.2 13.3 75 2.5 SSW 19 24 10 13 1012.0 1012.0 0.2
19/08:00pm 17.4 15.1 13.1 76 2.4 SSW 17 22 9 12 1011.9 1011.9 0.2
19/07:30pm 17.4 14.7 12.9 75 2.5 SSW 19 28 10 15 1011.7 1011.7 0.2
19/07:00pm 17.9 14.6 12.8 72 2.9 SSW 22 30 12 16 1011.5 1011.5 0.2
19/06:30pm 18.6 15.1 13.5 72 2.9 SSW 24 33 13 18 1011.3 1011.3 0.2
19/06:00pm 18.9 14.9 12.9 68 3.4 SSW 26 37 14 20 1011.0 1011.0 0.2
19/05:30pm 19.7 15.8 13.4 67 3.6 SSW 26 35 14 19 1010.9 1010.9 0.2
19/05:00pm 19.9 14.5 12.7 63 4.1 SSW 33 44 18 24 1010.8 1010.8 0.2
19/04:30pm 20.4 16.4 12.9 62 4.3 SSW 26 37 14 20 1010.7 1010.7 0.2
19/04:00pm 20.5 15.4 13.0 62 4.3 SSW 32 44 17 24 1010.2 1010.1 0.2
19/03:30pm 20.6 14.8 12.8 61 4.4 SW 35 46 19 25 1010.1 1010.0 0.2
19/03:00pm 21.2 15.9 13.1 60 4.6 SW 33 48 18 26 1009.8 1009.7 0.2
19/02:40pm 21.1 15.0 13.0 60 4.6 SW 37 56 20 30 1009.7 1009.6 0.2
19/02:30pm 20.8 14.1 12.2 58 4.8 SW 39 57 21 31 1009.5 1009.4 0.2
19/02:28pm 20.9 14.7 12.6 59 4.7 SW 37 57 20 31 1009.5 1009.4 0.2
19/02:00pm 20.1 13.6 12.8 63 4.1 SW 39 54 21 29 1009.4 1009.3 0.2
19/01:30pm 21.0 14.4 13.7 63 4.2 SW 41 54 22 29 1009.5 1009.4 0.0
19/01:00pm 20.6 14.5 13.1 62 4.3 SW 37 52 20 28 1009.4 1009.3 0.0
19/12:30pm 19.3 12.8 12.8 66 3.7 SW 39 57 21 31 1009.5 1009.4 0.0
19/12:16pm 19.5 12.6 12.8 65 3.8 SW 41 59 22 32 1009.4 1009.3 0.0
19/12:00pm 19.8 13.1 13.3 66 3.7 SW 41 57 22 31 1009.4 1009.3 0.0
19/11:30am 20.6 14.1 12.8 61 4.4 SW 39 59 21 32 1009.1 1009.0 0.0
19/11:00am 21.3 14.9 13.2 60 4.6 SW 39 59 21 32 1009.0 1008.9 0.0
19/10:45am 21.2 14.7 14.1 64 4.1 SW 41 59 22 32 1008.8 1008.7 0.0
19/10:30am 19.8 13.7 14.0 69 3.3 SW 39 56 21 30 1008.8 1008.7 0.0
19/10:07am 21.3 16.0 14.2 64 4.1 SW 35 61 19 33 1008.4 1008.3 0.0
19/10:00am 20.4 15.2 14.5 69 3.4 SW 35 52 19 28 1008.3 1008.2 0.0
19/09:32am 20.0 14.2 13.9 68 3.5 WSW 37 57 20 31 1008.4 1008.3 0.0
19/09:30am 20.3 15.1 14.4 69 3.4 WSW 35 50 19 27 1008.4 1008.3 0.0
19/09:10am 20.5 15.8 14.8 70 3.3 WSW 33 54 18 29 1008.3 1008.2 0.0
19/09:00am 20.2 15.5 14.8 71 3.2 WSW 33 50 18 27 1008.2 1008.1 1.8
19/08:42am 19.4 14.9 14.9 75 2.6 WSW 32 52 17 28 1008.1 1008.0 1.8
19/08:30am 19.0 15.4 15.3 79 2.2 WSW 28 44 15 24 1008.0 1007.9 1.8
19/08:00am 18.5 15.0 15.6 83 1.7 WSW 28 39 15 21 1007.7 1007.6 1.8
19/07:30am 17.8 14.3 15.6 87 1.3 WSW 28 46 15 25 1007.2 1007.1 1.8
19/07:00am 17.6 13.8 15.8 89 1.1 WSW 30 43 16 23 1006.9 1006.8 1.8
19/06:30am 17.4 13.7 16.1 92 0.8 WSW 30 43 16 23 1006.3 1006.2 1.8
19/06:00am 17.5 15.3 17.0 97 0.3 WSW 24 39 13 21 1006.0 1005.9 1.8
19/05:30am 17.5 15.5 17.3 99 0.1 WSW 24 43 13 23 1005.5 1005.4 1.8
19/05:00am 18.1 15.3 17.3 95 0.5 WSW 28 39 15 21 1005.0 1004.9 0.4
19/04:30am 19.3 17.6 18.1 93 0.7 WSW 24 33 13 18 1004.2 1004.1 0.0
19/04:00am 19.9 18.0 17.7 87 1.4 WSW 24 39 13 21 1003.8 1003.7 0.0
19/03:30am 18.3 18.2 17.0 92 0.8 NE 13 17 7 9 1001.8 1001.7 0.0
19/03:00am 18.1 18.5 17.3 95 0.5 NE 11 13 6 7 1002.2 1002.1 0.0
19/02:30am 17.9 18.7 17.3 96 0.4 ENE 9 11 5 6 1002.7 1002.6 0.0
19/02:00am 18.3 19.7 17.3 94 0.6 ENE 6 7 3 4 1003.5 1003.4 0.0
19/01:30am 18.9 20.8 17.6 92 0.8 NNE 4 6 2 3 1003.9 1003.8 0.0
19/01:00am 19.3 20.4 17.1 87 1.3 N 7 11 4 6 1004.5 1004.4 0.0
19/12:30am 19.3 20.1 15.8 80 2.1 N 6 7 3 4 1004.8 1004.7 0.0
19/12:00am 19.3 19.4 15.4 78 2.3 NE 9 11 5 6 1005.1 1005.0 0.0
 
Date/Time
WST
Temp
°C
App
Temp
°C
Dew
Point
°C
Rel
Hum
%
Delta-T
°C
Wind Press
QNH
hPa
Press
MSL
hPa
Rain since
9am
mm
Dir  Spd
km/h
Gust
km/h
Spd
kts
Gust
kts
18/11:30pm 19.4 19.1 15.5 78 2.3 NE 11 13 6 7 1005.5 1005.4 0.0
18/11:00pm 19.7 19.9 15.8 78 2.3 ENE 9 13 5 7 1005.7 1005.6 0.0
18/10:30pm 19.9 19.5 16.3 80 2.2 NE 13 17 7 9 1006.3 1006.2 0.0
18/10:00pm 19.9 20.8 16.7 82 1.9 NE 7 9 4 5 1007.2 1007.1 0.0
18/09:30pm 20.0 21.5 16.6 81 2.1 ENE 4 6 2 3 1007.4 1007.3 0.0
18/09:00pm 19.8 21.3 16.6 82 1.9 ENE 4 6 2 3 1007.2 1007.1 0.0
18/08:30pm 19.6 20.9 17.0 85 1.6 ESE 6 7 3 4 1007.3 1007.2 0.0
18/08:00pm 19.5 19.8 17.1 86 1.5 ESE 11 17 6 9 1007.4 1007.3 0.0
18/07:30pm 19.6 19.1 16.8 84 1.7 ESE 15 20 8 11 1007.7 1007.6 0.0
18/07:00pm 19.6 18.0 16.4 82 1.9 ESE 20 32 11 17 1007.5 1007.4 0.0
18/06:30pm 20.0 17.8 16.0 78 2.4 ESE 22 35 12 19 1007.9 1007.8 0.0
18/06:00pm 20.3 17.2 15.5 74 2.9 ESE 26 37 14 20 1008.2 1008.1 0.0
18/05:30pm 21.1 18.6 15.2 69 3.5 ESE 22 39 12 21 1008.6 1008.5 0.0
18/05:00pm 21.0 16.9 14.9 68 3.6 ESE 30 43 16 23 1008.8 1008.7 0.0
18/04:30pm 21.2 16.5 14.4 65 4.0 ESE 32 44 17 24 1008.9 1008.8 0.0
18/04:00pm 21.3 16.4 14.2 64 4.1 ESE 33 46 18 25 1009.5 1009.4 0.0
18/03:30pm 21.8 17.1 14.2 62 4.4 ESE 32 48 17 26 1010.1 1010.0 0.0
18/03:00pm 22.0 17.0 13.9 60 4.7 ESE 33 48 18 26 1010.4 1010.3 0.0
18/02:30pm 21.7 16.5 13.3 59 4.8 ESE 33 52 18 28 1010.4 1010.3 0.0
18/02:12pm 21.7 16.6 13.1 58 4.9 ESE 32 50 17 27 1010.6 1010.5 0.0
18/02:00pm 21.6 16.3 13.2 59 4.8 ESE 33 48 18 26 1010.8 1010.8 0.0
18/01:30pm 21.4 16.0 12.3 56 5.1 ESE 32 46 17 25 1011.3 1011.3 0.0
18/01:00pm 22.0 16.5 12.0 53 5.6 ESE 32 43 17 23 1011.8 1011.8 0.0
18/12:42pm 22.9 17.9 12.2 51 6.1 ESE 30 50 16 27 1012.2 1012.2 0.0
18/12:30pm 22.3 17.4 11.4 50 6.1 SE 28 46 15 25 1012.4 1012.4 0.0
18/12:00pm 22.3 17.0 11.4 50 6.1 SE 30 43 16 23 1012.9 1012.9 0.0
18/11:30am 22.2 17.1 10.7 48 6.3 SE 28 39 15 21 1013.5 1013.5 0.0
18/11:00am 24.1 19.6 6.8 33 9.0 ENE 20 35 11 19 1014.0 1014.0 0.0
18/10:30am 23.3 18.3 6.6 34 8.6 NE 22 41 12 22 1014.4 1014.4 0.0
18/10:00am 22.0 17.1 7.0 38 7.7 NE 22 35 12 19 1014.8 1014.8 0.0
18/09:30am 20.7 15.4 6.6 40 7.1 NE 24 35 13 19 1015.2 1015.2 0.0
18/09:00am 20.1 14.5 7.1 43 6.6 NE 26 35 14 19 1015.8 1015.7 0.0
18/08:30am 19.7 14.5 7.4 45 6.3 NE 24 33 13 18 1016.2 1016.1 0.0
18/08:00am 19.1 13.6 7.5 47 5.9 NE 26 39 14 21 1016.6 1016.5 0.0
18/07:30am 17.8 13.1 7.8 52 5.1 NE 22 35 12 19 1016.9 1016.8 0.0
18/07:00am 16.4 12.7 8.1 58 4.2 NNE 17 26 9 14 1016.9 1016.8 0.0
18/06:30am 13.5 11.1 8.8 73 2.4 NNE 11 17 6 9 1017.0 1016.9 0.0
18/06:00am 10.8 8.7 8.2 84 1.3 NNE 9 11 5 6 1017.3 1017.2 0.0
18/05:30am 10.3 7.8 8.2 87 1.0 NNE 11 13 6 7 1017.1 1017.0 0.0
18/05:00am 10.3 8.2 8.4 88 0.9 NNE 9 11 5 6 1016.9 1016.8 0.0
18/04:30am 10.3 8.2 8.2 87 1.0 NE 9 9 5 5 1016.8 1016.7 0.0
18/04:00am 10.7 8.7 8.5 86 1.1 NNE 9 11 5 6 1016.9 1016.8 0.0
18/03:30am 10.6 8.5 8.2 85 1.2 NE 9 11 5 6 1016.8 1016.7 0.0
18/03:00am 11.3 9.7 8.7 84 1.3 NNE 7 9 4 5 1016.9 1016.8 0.0
18/02:30am 10.8 9.6 7.9 82 1.4 N 4 4 2 2 1016.9 1016.8 0.0
18/02:00am 11.4 9.7 8.3 81 1.5 NNE 7 9 4 5 1017.0 1016.9 0.0
18/01:30am 11.9 10.2 8.4 79 1.7 NNE 7 9 4 5 1017.1 1017.0 0.0
18/01:00am 12.6 11.1 8.3 75 2.1 NE 6 7 3 4 1017.5 1017.4 0.0
18/12:30am 12.9 11.3 8.2 73 2.3 NNE 6 7 3 4 1017.9 1017.8 0.0
18/12:00am 13.6 12.4 8.2 70 2.7 NNE 4 4 2 2 1018.1 1018.0 0.0
 
Date/Time
WST
Temp
°C
App
Temp
°C
Dew
Point
°C
Rel
Hum
%
Delta-T
°C
Wind Press
QNH
hPa
Press
MSL
hPa
Rain since
9am
mm
Dir  Spd
km/h
Gust
km/h
Spd
kts
Gust
kts
17/11:30pm 14.8 13.3 8.5 66 3.2 NNE 6 9 3 5 1018.3 1018.2 0.0
17/11:00pm 15.8 14.2 8.8 63 3.6 ENE 7 19 4 10 1018.4 1018.3 0.0
17/10:30pm 16.8 13.8 9.2 61 3.9 E 15 24 8 13 1018.6 1018.5 0.0
17/10:00pm 16.3 14.5 9.5 64 3.5 ENE 9 17 5 9 1018.8 1018.7 0.0
17/09:30pm 16.4 14.1 9.1 62 3.8 ENE 11 19 6 10 1018.8 1018.7 0.0
17/09:00pm 16.4 13.7 8.9 61 3.8 E 13 20 7 11 1018.8 1018.7 0.0
17/08:30pm 16.7 13.0 8.1 57 4.4 ESE 17 24 9 13 1018.8 1018.7 0.0
17/08:00pm 16.6 12.7 8.6 59 4.1 ESE 19 28 10 15 1018.7 1018.6 0.0
17/07:30pm 16.7 13.1 8.4 58 4.2 ESE 17 28 9 15 1018.4 1018.3 0.0
17/07:00pm 17.0 13.2 8.9 59 4.2 ESE 19 26 10 14 1018.0 1017.9 0.0
17/06:30pm 17.6 14.5 9.0 57 4.5 SE 15 22 8 12 1017.7 1017.6 0.0
17/06:00pm 18.6 14.7 9.4 55 4.8 ESE 20 30 11 16 1017.6 1017.5 0.0
17/05:30pm 18.9 14.4 9.9 56 4.8 ESE 24 33 13 18 1017.2 1017.1 0.0
17/05:00pm 19.4 15.5 10.7 57 4.7 ESE 22 33 12 18 1017.1 1017.0 0.0
17/04:30pm 20.1 15.9 11.1 56 4.9 SE 24 35 13 19 1017.1 1017.0 0.0
17/04:00pm 20.4 16.3 11.3 56 5.0 SE 24 33 13 18 1017.1 1017.0 0.0
17/03:30pm 20.1 15.7 11.6 58 4.7 SE 26 35 14 19 1017.0 1016.9 0.0
17/03:00pm 21.6 18.4 11.9 54 5.4 SE 20 28 11 15 1017.0 1016.9 0.0
17/02:30pm 21.3 17.9 11.1 52 5.6 SE 20 32 11 17 1017.0 1016.9 0.0
17/02:00pm 21.2 17.7 12.3 57 5.0 SSE 22 32 12 17 1016.9 1016.8 0.0
17/01:30pm 20.5 16.2 12.0 58 4.7 SSE 26 37 14 20 1016.9 1016.8 0.0
17/01:00pm 21.6 17.8 11.0 51 5.8 SSE 22 32 12 17 1017.1 1017.0 0.0
17/12:30pm 21.2 17.5 10.1 49 6.0 SE 20 28 11 15 1017.1 1017.0 0.0
17/12:00pm 20.7 16.7 9.0 47 6.2 SSE 20 32 11 17 1017.0 1016.9 0.0
17/11:30am 20.7 16.4 9.3 48 6.1 SSE 22 32 12 17 1017.1 1017.0 0.0
17/11:00am 20.5 16.3 9.7 50 5.8 SSE 22 32 12 17 1017.3 1017.2 0.0
17/10:30am 20.4 16.2 9.6 50 5.8 SSE 22 30 12 16 1017.3 1017.2 0.0
17/10:00am 19.8 15.7 10.0 53 5.2 SSE 22 30 12 16 1017.3 1017.2 0.0
17/09:30am 20.2 16.1 10.0 52 5.5 SSE 22 32 12 17 1017.1 1017.0 0.0
17/09:00am 19.4 15.2 9.9 54 5.1 SSE 22 33 12 18 1017.1 1017.0 0.0
17/08:30am 19.3 15.3 10.3 56 4.8 SSE 22 32 12 17 1017.0 1016.9 0.0
17/08:00am 19.4 15.9 10.1 55 5.0 SSE 19 28 10 15 1017.0 1016.9 0.0
17/07:30am 19.3 15.7 9.8 54 5.1 SSE 19 26 10 14 1016.8 1016.7 0.0
17/07:00am 18.6 15.3 9.4 55 4.8 SSE 17 24 9 13 1016.6 1016.5 0.0
17/06:30am 18.0 15.0 10.6 62 4.0 SSE 17 26 9 14 1016.4 1016.3 0.0
17/06:00am 17.1 13.9 9.8 62 3.8 S 17 24 9 13 1016.0 1015.9 0.0
17/05:30am 16.5 13.1 10.6 68 3.1 S 19 26 10 14 1015.5 1015.4 0.0
17/05:00am 16.4 13.0 10.7 69 3.0 S 19 26 10 14 1015.0 1015.0 0.0
17/04:30am 16.2 13.1 10.3 68 3.1 S 17 24 9 13 1014.7 1014.7 0.0
17/04:00am 16.6 14.1 10.9 69 3.1 S 15 22 8 12 1014.3 1014.3 0.0
17/03:30am 17.0 14.9 11.3 69 3.1 SSE 13 17 7 9 1014.1 1014.1 0.0
17/03:00am 17.0 14.5 11.1 68 3.2 SSE 15 24 8 13 1013.7 1013.7 0.0
17/02:30am 17.0 14.0 10.6 66 3.4 SSE 17 22 9 12 1013.5 1013.5 0.0
17/02:00am 17.1 14.1 10.7 66 3.4 SSE 17 22 9 12 1013.3 1013.3 0.0
17/01:30am 16.9 14.8 11.2 69 3.1 SSE 13 20 7 11 1013.3 1013.3 0.0
17/01:00am 16.8 14.3 10.9 68 3.2 SSE 15 20 8 11 1013.5 1013.5 0.0
17/12:30am 17.3 14.6 11.6 69 3.1 SSE 17 22 9 12 1013.5 1013.5 0.0
17/12:00am 17.3 14.9 11.3 68 3.3 SSE 15 22 8 12 1013.7 1013.7 0.0
 
Date/Time
WST
Temp
°C
App
Temp
°C
Dew
Point
°C
Rel
Hum
%
Delta-T
°C
Wind Press
QNH
hPa
Press
MSL
hPa
Rain since
9am
mm
Dir  Spd
km/h
Gust
km/h
Spd
kts
Gust
kts
16/11:30pm 17.3 14.1 11.1 67 3.3 SSE 19 24 10 13 1013.8 1013.8 0.0
16/11:00pm 17.2 14.4 11.2 68 3.2 SSE 17 24 9 13 1014.0 1014.0 0.0
16/10:30pm 17.3 14.0 10.9 66 3.4 S 19 24 10 13 1013.9 1013.9 0.0
16/10:00pm 17.4 13.9 11.0 66 3.5 S 20 28 11 15 1013.9 1013.9 0.0
16/09:30pm 17.4 14.2 11.2 67 3.4 S 19 28 10 15 1013.9 1013.9 0.0
16/09:00pm 17.4 13.9 10.8 65 3.5 S 20 26 11 14 1013.7 1013.7 0.0

Other Formats:

Comma delimited format used in spreadsheet applications
http://www.bom.gov.au/fwo/IDW60801/IDW60801.95635.axf

JavaScript Object Notation format (JSON) in row-major order
http://www.bom.gov.au/fwo/IDW60801/IDW60801.95635.json